Time;durP1;ratioP1;P1;durP2;ratioP2;P2;SDS_P1;SDS_P2;PMS_P1;PMS_P2;Temp;Humidity;BMP_temperature;BMP_pressure;BME280_temperature;BME280_humidity;BME280_pressure;Samples;Min_cycle;Max_cycle;Signal;HPM_P1;HPM_P2
2022/09/27 00:01:13;;;;;;;8.45;2.58;;;;;;;8.70;100.00;98135.69;4977335;28;20027;-87
2022/09/27 00:03:39;;;;;;;8.27;2.33;;;;;;;8.71;100.00;98138.03;4975514;28;20555;-86
2022/09/27 00:06:18;;;;;;;7.35;1.98;;;;;;;8.67;100.00;98139.16;4992261;28;20113;-82
2022/09/27 00:08:45;;;;;;;6.45;2.75;;;;;;;8.61;100.00;98137.94;4975193;28;20023;-87
2022/09/27 00:11:19;;;;;;;6.88;2.58;;;;;;;8.63;100.00;98146.47;4975556;28;20471;-89
2022/09/27 00:13:44;;;;;;;7.25;2.40;;;;;;;8.56;100.00;98149.09;4975196;28;20031;-90
2022/09/27 00:16:10;;;;;;;8.05;2.50;;;;;;;8.55;100.00;98145.59;4975213;28;20030;-87
2022/09/27 00:18:36;;;;;;;5.53;2.03;;;;;;;8.52;100.00;98149.06;4977103;28;20507;-89
2022/09/27 00:21:07;;;;;;;5.18;2.22;;;;;;;8.49;100.00;98155.22;4977598;28;20081;-88
2022/09/27 00:23:34;;;;;;;9.40;2.17;;;;;;;8.48;100.00;98156.38;4977000;28;20031;-90
2022/09/27 00:26:00;;;;;;;5.63;2.20;;;;;;;8.45;100.00;98159.81;4976319;28;20050;-89
2022/09/27 00:28:26;;;;;;;11.00;2.83;;;;;;;8.47;100.00;98157.53;4976732;28;20388;-88
2022/09/27 00:30:52;;;;;;;;;;;;;;;8.48;100.00;98159.09;4975115;28;20045;-90
2022/09/27 00:33:18;;;;;;;8.77;2.50;;;;;;;8.59;100.00;98161.94;4976452;28;19993;-90
2022/09/27 00:35:43;;;;;;;7.78;3.17;;;;;;;8.51;100.00;98166.47;4977159;28;20837;-88
2022/09/27 00:38:12;;;;;;;11.00;3.38;;;;;;;8.52;100.00;98165.31;4976140;28;20027;-89
2022/09/27 00:40:38;;;;;;;12.85;4.38;;;;;;;8.52;100.00;98161.84;4979711;28;20061;-87
2022/09/27 00:43:18;;;;;;;9.35;3.28;;;;;;;8.49;100.00;98168.78;4995870;28;20139;-88
2022/09/27 00:45:51;;;;;;;6.55;3.10;;;;;;;8.52;100.00;98172.69;4995871;28;20018;-89
2022/09/27 00:48:23;;;;;;;9.68;3.00;;;;;;;8.48;100.00;98174.56;4995313;28;20026;-88
2022/09/27 00:50:51;;;;;;;8.68;3.47;;;;;;;8.46;100.00;98174.94;4997659;28;20109;-87
2022/09/27 00:53:21;;;;;;;7.18;2.38;;;;;;;8.46;100.00;98166.81;4961581;28;20490;-90
2022/09/27 00:55:53;;;;;;;6.35;2.83;;;;;;;8.46;100.00;98168.75;4977530;28;20104;-87
2022/09/27 00:58:24;;;;;;;8.50;2.50;;;;;;;8.56;100.00;98166.16;4995441;28;20018;-86
2022/09/27 01:00:52;;;;;;;4.97;1.92;;;;;;;8.51;100.00;98169.19;4994701;28;20026;-82
2022/09/27 01:03:59;;;;;;;6.90;2.75;;;;;;;8.48;100.00;98161.78;4992382;28;20090;-82
2022/09/27 01:06:24;;;;;;;8.98;2.75;;;;;;;8.49;100.00;98168.78;4989564;28;20030;-82
2022/09/27 01:08:51;;;;;;;8.10;2.72;;;;;;;8.56;100.00;98174.28;4992882;28;20034;-81
2022/09/27 01:11:41;;;;;;;10.00;2.90;;;;;;;8.55;100.00;98166.53;4975083;28;20487;-82
2022/09/27 01:14:15;;;;;;;7.43;3.20;;;;;;;8.53;100.00;98177.75;4991995;28;20070;-81
2022/09/27 01:17:07;;;;;;;8.75;3.42;;;;;;;8.53;100.00;98169.59;4975245;28;20045;-81
2022/09/27 01:19:35;;;;;;;8.40;3.97;;;;;;;8.52;100.00;98178.13;4981988;28;20062;-81
2022/09/27 01:22:13;;;;;;;9.65;4.60;;;;;;;8.50;100.00;98178.47;4992548;28;20040;-82
2022/09/27 01:25:15;;;;;;;11.10;4.13;;;;;;;8.48;100.00;98182.72;4996336;28;20142;-82
2022/09/27 01:28:08;;;;;;;12.48;4.05;;;;;;;8.44;100.00;98178.03;4978748;28;20038;-83
2022/09/27 01:30:52;;;;;;;13.77;4.13;;;;;;;8.45;100.00;98189.66;4996434;28;20129;-82
2022/09/27 01:33:30;;;;;;;8.55;3.90;;;;;;;8.47;100.00;98179.22;4996144;28;20069;-82
2022/09/27 01:36:32;;;;;;;11.57;3.85;;;;;;;8.45;100.00;98178.81;4978565;28;20030;-83
2022/09/27 01:39:17;;;;;;;8.20;3.83;;;;;;;8.51;100.00;98179.25;4978544;28;20034;-82
2022/09/27 01:41:53;;;;;;;10.60;3.95;;;;;;;8.49;100.00;98182.34;4995819;28;20054;-83
2022/09/27 01:44:29;;;;;;;11.10;4.23;;;;;;;8.46;100.00;98180.38;4996040;28;20085;-82
2022/09/27 01:47:17;;;;;;;10.18;4.65;;;;;;;8.42;100.00;98176.84;4978298;28;20061;-82
2022/09/27 01:50:02;;;;;;;13.20;4.15;;;;;;;8.45;100.00;98176.09;4995475;28;20049;-82
2022/09/27 01:52:37;;;;;;;11.40;3.58;;;;;;;8.49;100.00;98185.06;4995188;28;20041;-82
2022/09/27 01:55:06;;;;;;;8.85;4.38;;;;;;;8.58;100.00;98171.22;4995678;28;20032;-82
2022/09/27 01:57:39;;;;;;;11.52;4.45;;;;;;;8.55;100.00;98185.50;4977956;28;20045;-82
2022/09/27 02:00:07;;;;;;;9.75;4.22;;;;;;;8.48;100.00;98186.22;4995529;28;20026;-82
2022/09/27 02:02:42;;;;;;;8.60;3.83;;;;;;;8.49;100.00;98185.06;4977719;28;20031;-83
2022/09/27 02:05:12;;;;;;;8.35;4.10;;;;;;;8.46;100.00;98198.56;4995366;28;20031;-81
2022/09/27 02:07:55;;;;;;;10.63;3.80;;;;;;;8.47;100.00;98181.16;4995740;28;20101;-82
2022/09/27 02:10:23;;;;;;;14.32;3.88;;;;;;;8.44;100.00;98193.53;4995314;28;20109;-82
2022/09/27 02:12:57;;;;;;;9.30;3.33;;;;;;;8.45;100.00;98189.66;4994988;28;20030;-82
2022/09/27 02:15:25;;;;;;;9.43;3.33;;;;;;;8.42;100.00;98184.97;4995173;28;20041;-81
2022/09/27 02:18:00;;;;;;;9.38;3.30;;;;;;;8.42;100.00;98199.31;4977474;28;20133;-81
2022/09/27 02:20:33;;;;;;;9.52;3.45;;;;;;;8.48;100.00;98199.00;4995055;28;20034;-81
2022/09/27 02:23:05;;;;;;;8.65;3.95;;;;;;;8.47;100.00;98203.63;4995056;28;20061;-81
2022/09/27 02:25:59;;;;;;;6.82;3.22;;;;;;;8.45;100.00;98197.78;4995156;28;20023;-81
2022/09/27 02:28:47;;;;;;;7.32;3.17;;;;;;;8.46;100.00;98201.28;4994869;28;20035;-81
2022/09/27 02:31:12;;;;;;;7.95;3.90;;;;;;;8.51;100.00;98195.53;4977223;28;20031;-81
2022/09/27 02:33:46;;;;;;;8.25;3.42;;;;;;;8.50;100.00;98202.13;4960606;28;20030;-83
2022/09/27 02:36:11;;;;;;;7.95;3.47;;;;;;;8.46;100.00;98206.72;4994703;28;20026;-82
2022/09/27 02:38:37;;;;;;;9.90;3.17;;;;;;;8.43;100.00;98209.00;4993595;28;20514;-84
2022/09/27 02:41:11;;;;;;;12.23;4.13;;;;;;;8.43;100.00;98205.53;4994231;28;20050;-83
2022/09/27 02:43:38;;;;;;;8.40;3.60;;;;;;;8.60;100.00;98212.34;4994896;28;20387;-82
2022/09/27 02:46:46;;;;;;;15.07;3.75;;;;;;;8.47;100.00;98211.75;4976933;28;20034;-83
2022/09/27 02:49:35;;;;;;;9.10;3.80;;;;;;;8.50;100.00;98221.09;4976516;28;20489;-83
2022/09/27 02:52:38;;;;;;;12.82;3.65;;;;;;;8.42;100.00;98222.94;4994685;28;20125;-83
2022/09/27 02:55:29;;;;;;;8.88;3.50;;;;;;;8.40;100.00;98225.25;4994544;28;20054;-83
2022/09/27 02:58:50;;;;;;;8.40;3.45;;;;;;;8.40;100.00;98227.94;4994609;28;20029;-83
2022/09/27 03:01:18;;;;;;;7.97;2.80;;;;;;;8.43;100.00;98229.94;4884187;29;20611;-84
2022/09/27 03:04:27;;;;;;;11.43;4.55;;;;;;;8.42;100.00;98222.94;4934114;29;20036;-82
2022/09/27 03:06:55;;;;;;;10.57;4.00;;;;;;;8.39;100.00;98226.38;4918179;29;20175;-82
2022/09/27 03:09:24;;;;;;;11.30;4.00;;;;;;;8.37;100.00;98223.22;4917958;29;20503;-83
2022/09/27 03:11:49;;;;;;;8.13;3.47;;;;;;;8.38;100.00;98235.66;4902322;29;20511;-82
2022/09/27 03:14:15;;;;;;;13.43;4.20;;;;;;;8.38;100.00;98227.50;4917852;29;20032;-82
2022/09/27 03:16:40;;;;;;;8.90;3.90;;;;;;;8.38;100.00;98231.00;4917784;29;20035;-83
2022/09/27 03:19:06;;;;;;;9.27;4.30;;;;;;;8.33;100.00;98233.22;4917776;29;20575;-82
2022/09/27 03:21:31;;;;;;;10.20;4.20;;;;;;;8.30;100.00;98234.75;4933695;29;20110;-81
2022/09/27 03:23:57;;;;;;;10.00;3.97;;;;;;;8.25;100.00;98235.06;4933470;29;20393;-82
2022/09/27 03:26:22;;;;;;;15.95;4.47;;;;;;;8.28;100.00;98231.63;4933707;29;20138;-82
2022/09/27 03:28:47;;;;;;;16.75;5.43;;;;;;;8.26;100.00;98225.00;4933503;29;20028;-82
2022/09/27 03:31:14;;;;;;;10.70;3.20;;;;;;;8.31;100.00;98238.22;4950593;28;20113;-82
2022/09/27 03:33:40;;;;;;;8.88;3.75;;;;;;;8.24;100.00;98238.13;4975794;28;20033;-79
2022/09/27 03:36:06;;;;;;;7.35;2.92;;;;;;;8.28;100.00;98230.84;4993183;28;20112;-80
2022/09/27 03:38:31;;;;;;;;;;;;;;;8.32;100.00;98237.09;4975873;28;20026;-79
2022/09/27 03:40:57;;;;;;;6.03;2.55;;;;;;;8.33;100.00;98235.94;4993376;28;19976;-80
2022/09/27 03:43:23;;;;;;;;;;;;;;;8.32;100.00;98237.09;4993981;28;20026;-82
2022/09/27 03:45:49;;;;;;;6.85;2.53;;;;;;;8.29;100.00;98238.59;4992717;28;19932;-83
2022/09/27 03:48:15;;;;;;;7.45;2.75;;;;;;;8.28;100.00;98233.53;4975778;28;20037;-81
2022/09/27 03:50:40;;;;;;;7.68;3.30;;;;;;;8.28;100.00;98247.09;4992948;28;20030;-81
2022/09/27 03:53:06;;;;;;;13.40;4.53;;;;;;;8.29;100.00;98244.03;4958696;28;20034;-81
2022/09/27 03:55:31;;;;;;;9.57;4.05;;;;;;;8.33;100.00;98242.13;4975457;28;20041;-81
2022/09/27 03:57:57;;;;;;;9.63;4.60;;;;;;;8.33;100.00;98241.34;4993143;28;20041;-82
2022/09/27 04:00:23;;;;;;;10.52;4.35;;;;;;;8.31;100.00;98238.22;4993400;28;20033;-81
2022/09/27 04:02:49;;;;;;;11.18;4.75;;;;;;;8.15;100.00;98247.28;4975484;28;20129;-84
2022/09/27 04:05:15;;;;;;;13.20;5.40;;;;;;;8.18;100.00;98236.88;4992892;28;20161;-81
2022/09/27 04:07:45;;;;;;;11.48;5.30;;;;;;;8.18;100.00;98245.00;4992893;28;20045;-81
2022/09/27 04:10:11;;;;;;;12.63;4.82;;;;;;;8.20;100.00;98235.34;4992896;28;20101;-81
2022/09/27 04:12:39;;;;;;;10.55;4.95;;;;;;;8.23;100.00;98248.19;4974958;28;20073;-81
2022/09/27 04:15:06;;;;;;;9.75;4.57;;;;;;;8.18;100.00;98240.34;4992984;28;20479;-80
2022/09/27 04:17:34;;;;;;;12.98;5.20;;;;;;;8.09;100.00;98247.97;4992927;28;20030;-81
2022/09/27 04:20:02;;;;;;;11.43;4.35;;;;;;;8.11;100.00;98248.38;4992892;28;20447;-81
2022/09/27 04:22:27;;;;;;;9.43;4.00;;;;;;;8.09;100.00;98245.25;4993103;28;20030;-81
2022/09/27 04:24:52;;;;;;;9.45;4.53;;;;;;;8.05;100.00;98249.81;4975245;28;20538;-80
2022/09/27 04:27:18;;;;;;;8.40;3.97;;;;;;;8.06;100.00;98259.53;4975115;28;20040;-80
2022/09/27 04:29:45;;;;;;;9.60;4.43;;;;;;;8.00;100.00;98264.47;4993004;28;20133;-81
2022/09/27 04:32:11;;;;;;;7.70;3.72;;;;;;;7.97;100.00;98254.34;4975416;28;20030;-81
2022/09/27 04:37:21;;;;;;;15.30;4.35;;;;;;;8.06;100.00;98263.03;4993097;28;20521;-81
2022/09/27 04:39:48;;;;;;;14.80;3.50;;;;;;;8.08;100.00;98270.81;4974893;28;20026;-81
2022/09/27 04:42:15;;;;;;;7.70;3.83;;;;;;;8.04;100.00;98264.53;4956496;28;20059;-81
2022/09/27 04:44:42;;;;;;;5.93;2.95;;;;;;;8.05;100.00;98269.59;4971843;28;20038;-79
2022/09/27 04:47:07;;;;;;;8.02;3.53;;;;;;;8.02;100.00;98275.72;4973088;28;20026;-81
2022/09/27 04:49:33;;;;;;;8.38;3.53;;;;;;;7.98;100.00;98277.59;4973082;28;20432;-78
2022/09/27 04:51:58;;;;;;;8.98;3.63;;;;;;;8.02;100.00;98275.72;4972957;28;20027;-80
2022/09/27 04:54:24;;;;;;;9.03;4.27;;;;;;;7.97;100.00;98267.13;4973122;28;20101;-81
2022/09/27 04:56:49;;;;;;;7.80;3.45;;;;;;;7.96;100.00;98282.59;4972839;28;20286;-80
2022/09/27 04:59:15;;;;;;;7.30;3.13;;;;;;;7.92;100.00;98276.34;4976883;28;20027;-79
2022/09/27 05:01:40;;;;;;;7.40;3.00;;;;;;;7.89;100.00;98277.03;4977105;28;20031;-81
2022/09/27 05:04:06;;;;;;;8.57;3.13;;;;;;;7.94;100.00;98281.41;4976943;28;20762;-79
2022/09/27 05:06:31;;;;;;;7.80;3.10;;;;;;;7.89;100.00;98282.47;4977133;28;20034;-82
2022/09/27 05:08:57;;;;;;;8.23;2.88;;;;;;;7.97;100.00;98280.69;4976691;28;20030;-79
2022/09/27 05:11:23;;;;;;;6.68;2.95;;;;;;;7.87;100.00;98284.75;4976786;28;20042;-78
2022/09/27 05:13:49;;;;;;;;;;;;;;;7.94;100.00;98290.31;4977042;28;20519;-78
2022/09/27 05:16:16;;;;;;;8.35;3.30;;;;;;;7.90;100.00;98289.47;4975528;28;19965;-80
2022/09/27 05:18:42;;;;;;;7.68;2.00;;;;;;;7.87;100.00;98289.41;4977292;28;20102;-79
2022/09/27 05:21:07;;;;;;;6.03;1.73;;;;;;;7.84;100.00;98290.91;4959254;28;20587;-79
2022/09/27 05:23:36;;;;;;;4.78;1.83;;;;;;;7.80;100.00;98295.47;4976614;28;20038;-82
2022/09/27 05:26:06;;;;;;;3.33;1.13;;;;;;;7.83;100.00;98295.53;4975116;28;20031;-80
2022/09/27 05:28:33;;;;;;;3.30;1.38;;;;;;;7.82;100.00;98299.41;4975168;28;20050;-80
2022/09/27 05:30:59;;;;;;;3.58;1.20;;;;;;;7.82;100.00;98290.47;4976611;28;20045;-81
2022/09/27 05:33:33;;;;;;;4.38;1.25;;;;;;;7.87;100.00;98292.88;4976638;28;20399;-82
2022/09/27 05:35:58;;;;;;;6.97;2.10;;;;;;;8.02;100.00;98288.50;4992909;28;20061;-79
2022/09/27 05:38:24;;;;;;;;;;;;;;;7.83;100.00;98294.75;4978163;28;20504;-79
2022/09/27 05:40:50;;;;;;;2.90;0.88;;;;;;;7.72;100.00;98294.56;4976031;28;20114;-81
2022/09/27 05:43:20;;;;;;;7.50;1.45;;;;;;;7.72;100.00;98293.78;4976068;28;20031;-81
2022/09/27 05:45:45;;;;;;;4.45;0.98;;;;;;;7.76;100.00;98308.19;4993115;28;20110;-80
2022/09/27 05:48:13;;;;;;;2.63;1.20;;;;;;;7.81;100.00;98310.59;4977468;28;20027;-79
2022/09/27 05:50:41;;;;;;;3.25;1.20;;;;;;;7.82;100.00;98314.88;4976569;28;20053;-80
2022/09/27 05:53:08;;;;;;;8.55;1.70;;;;;;;7.87;100.00;98322.69;4977777;28;20515;-80
2022/09/27 05:55:34;;;;;;;2.78;1.00;;;;;;;8.01;100.00;98311.31;4978241;28;20027;-79
2022/09/27 05:58:01;;;;;;;4.63;1.27;;;;;;;7.77;100.00;98332.22;4976668;28;20046;-80
2022/09/27 06:00:27;;;;;;;5.40;1.20;;;;;;;7.77;100.00;98328.72;4977614;28;20038;-79
2022/09/27 06:02:56;;;;;;;5.57;1.83;;;;;;;7.85;100.00;98325.00;4978177;28;20106;-81
2022/09/27 06:05:22;;;;;;;3.22;1.30;;;;;;;8.01;100.00;98320.25;4976785;28;20031;-79
2022/09/27 06:07:48;;;;;;;2.67;0.88;;;;;;;7.98;100.00;98314.75;4977063;28;20118;-80
2022/09/27 06:10:15;;;;;;;3.15;1.20;;;;;;;8.01;100.00;98314.03;4977457;28;20030;-81
2022/09/27 06:12:40;;;;;;;3.33;0.98;;;;;;;7.91;100.00;98320.06;4977947;28;20035;-81
2022/09/27 06:15:07;;;;;;;3.65;1.10;;;;;;;8.01;100.00;98317.53;4976300;28;20608;-79
2022/09/27 06:17:36;;;;;;;4.85;1.52;;;;;;;8.08;100.00;98320.38;4976036;28;20492;-79
2022/09/27 06:20:02;;;;;;;4.57;1.20;;;;;;;8.10;100.00;98320.81;4977379;28;20051;-79
2022/09/27 06:22:28;;;;;;;4.22;1.13;;;;;;;8.19;100.00;98327.91;4975753;28;20396;-79
2022/09/27 06:24:58;;;;;;;3.55;1.33;;;;;;;8.21;100.00;98320.19;4976886;28;20119;-80
2022/09/27 06:27:25;;;;;;;5.53;1.10;;;;;;;8.13;100.00;98324.72;4977524;28;20402;-80
2022/09/27 06:29:50;;;;;;;;;;;;;;;8.10;100.00;98325.44;4976250;28;20130;-79
2022/09/27 06:32:16;;;;;;;2.85;1.00;;;;;;;8.14;100.00;98318.16;4975751;28;20335;-80
2022/09/27 06:34:41;;;;;;;3.77;1.10;;;;;;;8.21;100.00;98328.31;4977621;28;20034;-80
2022/09/27 06:37:07;;;;;;;4.87;0.97;;;;;;;8.24;100.00;98325.69;4977444;28;20274;-80
2022/09/27 06:39:33;;;;;;;8.20;1.70;;;;;;;8.36;100.00;98341.78;4977091;28;20290;-81
2022/09/27 06:41:59;;;;;;;3.38;1.17;;;;;;;8.25;100.00;98345.44;4990268;28;20116;-81
2022/09/27 06:44:28;;;;;;;6.75;1.80;;;;;;;8.11;100.00;98343.28;4994938;28;20120;-82
2022/09/27 06:46:58;;;;;;;6.32;1.63;;;;;;;8.26;100.00;98350.50;4961870;28;20030;-83
2022/09/27 06:49:24;;;;;;;6.30;1.83;;;;;;;8.24;100.00;98357.44;4978884;28;20037;-84
2022/09/27 06:51:51;;;;;;;4.05;1.95;;;;;;;8.26;100.00;98364.06;4978342;28;20027;-82
2022/09/27 06:54:17;;;;;;;7.10;1.77;;;;;;;8.20;100.00;98359.28;4995236;28;20022;-82
2022/09/27 06:56:45;;;;;;;4.32;1.40;;;;;;;8.19;100.00;98347.66;4995809;28;20057;-81
2022/09/27 07:02:01;;;;;;;4.03;1.67;;;;;;;8.07;100.00;98359.47;4995762;28;20041;-82
2022/09/27 07:04:27;;;;;;;4.78;1.30;;;;;;;8.06;100.00;98374.19;4995871;28;20036;-83
2022/09/27 07:06:52;;;;;;;2.65;1.02;;;;;;;8.08;100.00;98373.81;4977902;28;20102;-82
2022/09/27 07:09:18;;;;;;;2.93;1.17;;;;;;;8.08;100.00;98377.31;4994644;28;20046;-81
2022/09/27 07:11:44;;;;;;;4.88;2.05;;;;;;;8.13;100.00;98373.50;4994941;28;20451;-82
2022/09/27 07:14:10;;;;;;;5.25;1.67;;;;;;;8.04;100.00;98365.59;4977842;28;20517;-83
2022/09/27 07:16:36;;;;;;;;;;;;;;;8.10;100.00;98371.53;4996108;28;20053;-82
2022/09/27 07:19:03;;;;;;;4.93;1.27;;;;;;;8.17;100.00;98365.44;4961819;28;20374;-84
2022/09/27 07:21:28;;;;;;;3.75;1.23;;;;;;;8.17;100.00;98360.78;4976804;28;20113;-82
2022/09/27 07:24:14;;;;;;;21.15;4.13;;;;;;;8.20;100.00;98364.72;4961454;28;20514;-84
2022/09/27 07:26:40;;;;;;;8.48;1.52;;;;;;;8.24;100.00;98374.50;4978190;28;20030;-82
2022/09/27 07:29:06;;;;;;;5.95;1.08;;;;;;;8.26;100.00;98374.91;4978057;28;20080;-83
2022/09/27 07:31:53;;;;;;;;;;;;;;;8.24;100.00;98373.72;4995767;28;20022;-84
2022/09/27 07:34:38;;;;;;;5.32;1.13;;;;;;;8.22;100.00;98376.75;4977914;28;20386;-84
2022/09/27 07:37:07;;;;;;;2.65;1.13;;;;;;;8.45;100.00;98379.53;4966722;28;20076;-83
2022/09/27 07:40:03;;;;;;;9.43;0.90;;;;;;;8.41;100.00;98384.88;4977772;28;20038;-83
2022/09/27 07:42:55;;;;;;;9.05;1.75;;;;;;;8.51;100.00;98383.47;4991976;28;20046;-85
2022/09/27 07:45:26;;;;;;;3.13;0.90;;;;;;;8.62;100.00;98387.16;4977065;28;20507;-83
2022/09/27 07:47:52;;;;;;;4.85;1.38;;;;;;;8.52;100.00;98386.97;4977030;28;20054;-84
2022/09/27 07:50:20;;;;;;;6.65;1.63;;;;;;;8.51;100.00;98394.34;4995970;28;20495;-84
2022/09/27 07:52:52;;;;;;;4.82;1.80;;;;;;;8.51;100.00;98388.13;4978301;28;20448;-84
2022/09/27 07:55:18;;;;;;;4.00;1.63;;;;;;;8.47;100.00;98390.78;4996576;28;20117;-85
2022/09/27 07:58:01;;;;;;;4.90;1.30;;;;;;;8.46;100.00;98389.22;4996534;28;20114;-86
2022/09/27 08:00:26;;;;;;;5.57;1.42;;;;;;;8.47;100.00;98395.44;4995180;28;20057;-86
2022/09/27 08:03:59;;;;;;;4.78;1.17;;;;;;;8.52;100.00;98398.59;4997146;28;20487;-84
2022/09/27 08:06:32;;;;;;;4.32;1.15;;;;;;;8.40;100.00;98402.31;4987652;28;20113;-87
2022/09/27 08:08:58;;;;;;;9.82;3.35;;;;;;;8.50;100.00;98421.81;4979619;28;20030;-88
2022/09/27 08:11:24;;;;;;;4.00;1.25;;;;;;;8.44;100.00;98432.19;4979406;28;20522;-87
2022/09/27 08:13:51;;;;;;;2.95;1.00;;;;;;;8.38;100.00;98430.91;4997976;28;20054;-84
2022/09/27 08:16:17;;;;;;;9.15;1.33;;;;;;;8.46;100.00;98434.53;4995720;28;20471;-86
2022/09/27 08:18:43;;;;;;;4.07;1.30;;;;;;;8.42;100.00;98434.50;4996747;28;20018;-86
2022/09/27 08:21:08;;;;;;;3.33;0.98;;;;;;;8.49;100.00;98440.03;4978697;28;20034;-85
2022/09/27 08:23:35;;;;;;;3.03;1.23;;;;;;;8.58;100.00;98437.09;4996070;28;20037;-87
2022/09/27 08:26:01;;;;;;;7.93;1.80;;;;;;;8.66;100.00;98434.13;4978658;28;20037;-85
2022/09/27 08:28:28;;;;;;;3.15;1.08;;;;;;;8.72;100.00;98443.50;4976274;28;20124;-86
2022/09/27 08:30:58;;;;;;;13.57;1.92;;;;;;;8.86;100.00;98442.19;4977374;28;20035;-85
2022/09/27 08:33:24;;;;;;;3.90;1.50;;;;;;;8.91;98.95;98444.63;4995591;28;20022;-85
2022/09/27 08:35:51;;;;;;;3.47;1.08;;;;;;;8.91;98.27;98444.63;4996443;28;20026;-85
2022/09/27 08:38:16;;;;;;;4.85;1.30;;;;;;;8.93;97.76;98439.59;4995899;28;20641;-87
2022/09/27 08:40:48;;;;;;;6.13;1.70;;;;;;;9.06;97.37;98435.50;4975037;28;20176;-84
2022/09/27 08:43:25;;;;;;;3.65;1.55;;;;;;;8.98;97.42;98440.06;4977031;28;20109;-85
2022/09/27 08:46:13;;;;;;;6.95;1.15;;;;;;;9.02;97.41;98429.25;4976910;28;20027;-85
2022/09/27 08:48:39;;;;;;;4.05;1.20;;;;;;;8.96;95.95;98441.59;4973868;28;20101;-88
2022/09/27 08:51:12;;;;;;;2.03;0.70;;;;;;;8.97;95.58;98443.94;4976616;28;20027;-87
2022/09/27 08:53:45;;;;;;;3.63;0.80;;;;;;;9.00;95.98;98442.41;4977618;28;20031;-86
2022/09/27 08:56:14;;;;;;;3.92;1.15;;;;;;;9.06;96.58;98451.81;4975997;28;20023;-86
2022/09/27 08:58:58;;;;;;;2.45;0.90;;;;;;;9.03;96.90;98441.69;4975685;28;20034;-90
2022/09/27 09:01:25;;;;;;;2.15;0.85;;;;;;;9.07;96.68;98447.97;4976531;28;20034;-91
2022/09/27 09:03:59;;;;;;;2.47;1.15;;;;;;;8.96;97.41;98447.78;4991789;28;20046;-88
2022/09/27 09:06:38;;;;;;;3.88;0.93;;;;;;;8.84;97.61;98445.25;4977249;28;20031;-90
2022/09/27 09:09:35;;;;;;;2.60;1.00;;;;;;;8.76;98.18;98453.66;4977493;28;20542;-89
2022/09/27 09:15:09;;;;;;;3.88;1.35;;;;;;;8.63;100.00;98453.06;4979014;28;20058;-90
2022/09/27 09:17:57;;;;;;;4.63;1.45;;;;;;;8.64;100.00;98457.34;4979218;28;20498;-92
2022/09/27 09:21:00;;;;;;;3.67;1.38;;;;;;;8.56;100.00;98461.06;4979240;28;20073;-90
2022/09/27 09:23:57;;;;;;;3.88;1.75;;;;;;;8.57;100.00;98465.38;4978819;28;20073;-91
2022/09/27 09:26:59;;;;;;;4.07;1.65;;;;;;;8.63;100.00;98461.19;4977961;28;20018;-90
2022/09/27 09:29:46;;;;;;;3.80;1.55;;;;;;;8.51;100.00;98456.72;4975557;28;20037;-90
2022/09/27 09:32:56;;;;;;;3.75;1.42;;;;;;;8.58;100.00;98470.44;4979300;28;20034;-89
2022/09/27 09:35:32;;;;;;;3.40;1.33;;;;;;;8.56;100.00;98456.41;4975685;28;20543;-89
2022/09/27 09:38:08;;;;;;;4.50;1.38;;;;;;;8.66;100.00;98463.97;4975340;28;20026;-91
2022/09/27 09:40:46;;;;;;;4.43;1.75;;;;;;;8.70;100.00;98453.94;4977558;28;20022;-89
2022/09/27 09:43:20;;;;;;;3.92;1.10;;;;;;;8.64;100.00;98444.56;4978898;28;20216;-86
2022/09/27 09:45:54;;;;;;;3.45;1.20;;;;;;;8.65;100.00;98459.69;5001661;28;20022;-90
2022/09/27 09:48:38;;;;;;;2.40;0.90;;;;;;;8.68;100.00;98450.81;4984348;28;20033;-91
2022/09/27 09:51:09;;;;;;;3.80;1.30;;;;;;;8.72;100.00;98451.66;5004640;28;20022;-91
2022/09/27 09:53:57;;;;;;;4.18;1.35;;;;;;;8.73;100.00;98453.25;5000393;28;20033;-96
2022/09/27 09:56:31;;;;;;;3.10;1.00;;;;;;;8.73;100.00;98453.25;4983744;28;20033;-93
2022/09/27 09:59:01;;;;;;;3.13;1.17;;;;;;;8.70;100.00;98456.66;4983271;28;20022;-94
2022/09/27 10:01:47;;;;;;;3.85;1.52;;;;;;;8.67;100.00;98453.91;5001755;28;20113;-93
2022/09/27 10:04:23;;;;;;;7.57;2.10;;;;;;;8.69;100.00;98452.38;5000787;28;20026;-93
2022/09/27 10:06:50;;;;;;;5.93;1.85;;;;;;;8.68;100.00;98448.09;4984034;28;20022;-92
2022/09/27 10:09:25;;;;;;;3.70;1.70;;;;;;;8.58;100.00;98443.28;4988042;28;20399;-92
2022/09/27 10:11:52;;;;;;;4.88;1.70;;;;;;;8.59;100.00;98436.72;4986698;28;20113;-92
2022/09/27 10:14:20;;;;;;;4.85;1.92;;;;;;;8.76;100.00;98442.81;4987298;28;20033;-93
2022/09/27 10:16:49;;;;;;;6.32;2.30;;;;;;;8.72;100.00;98438.09;5001001;28;20030;-91
2022/09/27 10:19:19;;;;;;;4.03;1.92;;;;;;;8.63;100.00;98445.69;5001265;28;20018;-91
2022/09/27 10:21:47;;;;;;;4.65;1.70;;;;;;;8.66;100.00;98444.97;4982915;28;20442;-90
2022/09/27 10:24:15;;;;;;;7.10;1.63;;;;;;;8.76;100.00;98448.25;5000873;28;20037;-91
2022/09/27 10:26:43;;;;;;;5.45;2.50;;;;;;;8.79;100.00;98436.66;5002746;28;20038;-90
2022/09/27 10:29:33;;;;;;;5.68;2.10;;;;;;;8.86;100.00;98436.75;4999472;28;20060;-91
2022/09/27 10:32:03;;;;;;;5.00;2.55;;;;;;;8.93;100.00;98432.25;4997433;28;20025;-91
2022/09/27 10:34:41;;;;;;;5.28;2.17;;;;;;;8.96;100.00;98434.22;4999235;28;20041;-88
2022/09/27 10:37:10;;;;;;;9.27;2.78;;;;;;;9.09;100.00;98432.09;4981181;28;20546;-92
2022/09/27 10:39:40;;;;;;;7.72;2.90;;;;;;;9.14;100.00;98431.00;4999240;28;20022;-89
2022/09/27 10:42:35;;;;;;;5.72;2.67;;;;;;;9.21;100.00;98426.44;4966044;28;20051;-91
2022/09/27 10:45:28;;;;;;;4.80;2.17;;;;;;;9.30;100.00;98428.91;4979547;28;20110;-91
2022/09/27 10:47:55;;;;;;;4.65;2.15;;;;;;;9.30;100.00;98421.53;4980963;28;20039;-91
2022/09/27 10:50:32;;;;;;;5.85;2.20;;;;;;;9.41;100.00;98423.63;4981960;28;20037;-91
2022/09/27 10:53:10;;;;;;;4.65;2.10;;;;;;;9.48;100.00;98424.50;4980438;28;20444;-89
2022/09/27 10:55:36;;;;;;;4.20;2.00;;;;;;;9.52;100.00;98410.94;4963024;28;20495;-90
2022/09/27 10:58:03;;;;;;;3.33;1.75;;;;;;;9.55;100.00;98423.78;4959392;28;20033;-89
2022/09/27 11:00:31;;;;;;;7.28;2.20;;;;;;;9.57;100.00;98421.47;4960161;28;20026;-91
2022/09/27 11:03:46;;;;;;;10.52;3.45;;;;;;;9.61;100.00;98417.69;4978492;28;20057;-87
2022/09/27 11:06:24;;;;;;;4.95;1.58;;;;;;;9.75;100.00;98417.09;4961436;28;20031;-89
2022/09/27 11:08:51;;;;;;;3.58;1.67;;;;;;;9.75;99.43;98411.63;4978832;28;20019;-88
2022/09/27 11:11:27;;;;;;;3.40;1.50;;;;;;;9.71;98.48;98408.06;4964177;28;20045;-88
2022/09/27 11:14:17;;;;;;;2.97;1.30;;;;;;;9.75;97.87;98414.38;4994697;28;20050;-89
2022/09/27 11:17:11;;;;;;;2.85;1.00;;;;;;;9.77;97.76;98420.22;4978660;28;20251;-90
2022/09/27 11:19:42;;;;;;;2.83;1.15;;;;;;;9.79;97.33;98417.91;4973139;28;20042;-91
2022/09/27 11:22:19;;;;;;;3.38;1.45;;;;;;;9.81;97.15;98410.16;4977606;28;20093;-89
2022/09/27 11:25:22;;;;;;;3.58;1.00;;;;;;;9.78;96.78;98419.06;4991570;28;20121;-88
2022/09/27 11:28:15;;;;;;;6.40;1.90;;;;;;;9.79;97.49;98417.91;4975598;28;20027;-89
2022/09/27 11:30:56;;;;;;;11.27;3.50;;;;;;;9.89;97.17;98411.78;4978784;28;20054;-89
2022/09/27 11:33:43;;;;;;;15.43;3.67;;;;;;;9.89;96.25;98411.00;4992902;28;20033;-88
2022/09/27 11:36:42;;;;;;;3.03;1.30;;;;;;;9.86;95.34;98409.03;4977546;28;20110;-86
2022/09/27 11:39:27;;;;;;;3.95;1.92;;;;;;;9.89;93.70;98414.50;4974892;28;20035;-84
2022/09/27 11:42:56;;;;;;;2.75;1.10;;;;;;;9.92;93.89;98405.63;4966911;28;20158;-86
2022/09/27 11:45:55;;;;;;;13.02;2.28;;;;;;;9.95;93.95;98412.25;4933836;29;20031;-85
2022/09/27 11:48:34;;;;;;;17.88;3.20;;;;;;;10.05;93.70;98408.06;4974763;28;20031;-84
2022/09/27 11:51:03;;;;;;;6.05;1.83;;;;;;;10.16;93.78;98409.75;4974351;28;20122;-83
2022/09/27 11:53:50;;;;;;;2.88;1.15;;;;;;;10.13;90.84;98396.91;4974978;28;20030;-86
2022/09/27 11:57:07;;;;;;;3.10;1.17;;;;;;;10.13;88.10;98398.84;4975594;28;20027;-85
2022/09/27 11:59:50;;;;;;;4.05;1.20;;;;;;;10.32;88.07;98397.91;4952901;28;20030;-82
2022/09/27 12:02:43;;;;;;;6.10;2.05;;;;;;;10.40;87.12;98397.56;4974410;28;20019;-83
2022/09/27 12:05:36;;;;;;;4.95;1.30;;;;;;;10.33;85.72;98397.53;4975651;28;20110;-84
2022/09/27 12:08:26;;;;;;;11.55;2.03;;;;;;;10.45;87.10;98389.09;4973802;28;20033;-81
2022/09/27 12:11:02;;;;;;;3.10;1.20;;;;;;;10.43;87.40;98396.84;4976322;28;20029;-82
2022/09/27 12:13:35;;;;;;;15.85;2.55;;;;;;;10.31;89.49;98385.47;4975496;28;20553;-84